sensor_id;sensor_type;location;lat;lon;timestamp;pressure;altitude;pressure_sealevel;temperature;humidity
41712;BME280;27399;51.516;13.670;2023-03-20T00:01:55;100499.72;;;12.48;82.92
41712;BME280;27399;51.516;13.670;2023-03-20T00:04:21;100504.25;;;12.43;83.70
41712;BME280;27399;51.516;13.670;2023-03-20T00:06:47;100492.69;;;12.39;83.49
41712;BME280;27399;51.516;13.670;2023-03-20T00:09:12;100506.78;;;12.50;83.36
41712;BME280;27399;51.516;13.670;2023-03-20T00:11:49;100506.97;;;12.39;84.69
41712;BME280;27399;51.516;13.670;2023-03-20T00:14:17;100520.00;;;12.63;83.71
41712;BME280;27399;51.516;13.670;2023-03-20T00:16:46;100512.00;;;12.61;83.93
41712;BME280;27399;51.516;13.670;2023-03-20T00:19:26;100520.03;;;12.60;83.91
41712;BME280;27399;51.516;13.670;2023-03-20T00:21:53;100511.03;;;12.65;83.68
41712;BME280;27399;51.516;13.670;2023-03-20T00:24:19;100517.06;;;12.80;82.70
41712;BME280;27399;51.516;13.670;2023-03-20T00:26:45;100521.53;;;12.78;82.80
41712;BME280;27399;51.516;13.670;2023-03-20T00:31:46;100514.19;;;12.92;82.17
41712;BME280;27399;51.516;13.670;2023-03-20T00:34:14;100514.25;;;12.88;82.53
41712;BME280;27399;51.516;13.670;2023-03-20T00:36:41;100511.56;;;12.88;82.47
41712;BME280;27399;51.516;13.670;2023-03-20T00:39:07;100510.75;;;12.84;82.23
41712;BME280;27399;51.516;13.670;2023-03-20T00:41:42;100515.53;;;12.62;82.57
41712;BME280;27399;51.516;13.670;2023-03-20T00:44:29;100514.50;;;12.72;82.38
41712;BME280;27399;51.516;13.670;2023-03-20T00:46:59;100514.56;;;12.67;82.70
41712;BME280;27399;51.516;13.670;2023-03-20T00:49:28;100511.97;;;12.64;82.48
41712;BME280;27399;51.516;13.670;2023-03-20T00:51:55;100511.03;;;12.65;82.68
41712;BME280;27399;51.516;13.670;2023-03-20T00:54:21;100512.97;;;12.55;83.12
41712;BME280;27399;51.516;13.670;2023-03-20T00:59:25;100506.66;;;12.61;82.67
41712;BME280;27399;51.516;13.670;2023-03-20T01:01:52;100505.09;;;12.45;83.41
41712;BME280;27399;51.516;13.670;2023-03-20T01:04:19;100499.75;;;12.45;83.50
41712;BME280;27399;51.516;13.670;2023-03-20T01:06:45;100496.16;;;12.47;82.49
41712;BME280;27399;51.516;13.670;2023-03-20T01:09:11;100499.59;;;12.55;82.49
41712;BME280;27399;51.516;13.670;2023-03-20T01:11:38;100500.63;;;12.47;82.88
41712;BME280;27399;51.516;13.670;2023-03-20T01:14:05;100505.03;;;12.49;82.56
41712;BME280;27399;51.516;13.670;2023-03-20T01:16:37;100506.97;;;12.39;82.87
41712;BME280;27399;51.516;13.670;2023-03-20T01:19:03;100497.16;;;12.42;82.67
41712;BME280;27399;51.516;13.670;2023-03-20T01:21:29;100501.66;;;12.38;82.24
41712;BME280;27399;51.516;13.670;2023-03-20T01:23:54;100499.03;;;12.33;82.67
41712;BME280;27399;51.516;13.670;2023-03-20T01:28:54;100513.38;;;12.29;82.81
41712;BME280;27399;51.516;13.670;2023-03-20T01:31:19;100505.34;;;12.28;82.88
41712;BME280;27399;51.516;13.670;2023-03-20T01:33:45;100507.09;;;12.29;82.59
41712;BME280;27399;51.516;13.670;2023-03-20T01:36:17;100510.84;;;12.17;83.25
41712;BME280;27399;51.516;13.670;2023-03-20T01:38:45;100494.06;;;12.05;83.50
41712;BME280;27399;51.516;13.670;2023-03-20T01:41:16;100512.69;;;12.13;83.45
41712;BME280;27399;51.516;13.670;2023-03-20T01:43:44;100498.44;;;12.11;83.45
41712;BME280;27399;51.516;13.670;2023-03-20T01:49:00;100500.00;;;12.28;82.81
41712;BME280;27399;51.516;13.670;2023-03-20T01:51:30;100501.09;;;12.14;83.85
41712;BME280;27399;51.516;13.670;2023-03-20T01:56:34;100498.19;;;12.30;82.98
41712;BME280;27399;51.516;13.670;2023-03-20T01:59:11;100513.50;;;12.20;83.68
41712;BME280;27399;51.516;13.670;2023-03-20T02:01:39;100513.38;;;12.29;83.24
41712;BME280;27399;51.516;13.670;2023-03-20T02:04:06;100508.88;;;12.30;83.20
41712;BME280;27399;51.516;13.670;2023-03-20T02:06:34;100509.78;;;12.30;83.07
41712;BME280;27399;51.516;13.670;2023-03-20T02:09:01;100510.78;;;12.21;83.76
41712;BME280;27399;51.516;13.670;2023-03-20T02:11:28;100514.31;;;12.23;83.43
41712;BME280;27399;51.516;13.670;2023-03-20T02:13:56;100511.72;;;12.17;83.84
41712;BME280;27399;51.516;13.670;2023-03-20T02:16:22;100510.88;;;12.15;83.71
41712;BME280;27399;51.516;13.670;2023-03-20T02:18:49;100512.66;;;12.16;83.36
41712;BME280;27399;51.516;13.670;2023-03-20T02:32:16;100510.88;;;12.15;83.57
41712;BME280;27399;51.516;13.670;2023-03-20T02:38:45;100506.50;;;12.08;83.66
41712;BME280;27399;51.516;13.670;2023-03-20T02:49:01;100500.31;;;12.06;83.51
41712;BME280;27399;51.516;13.670;2023-03-20T02:51:36;100501.28;;;12.00;83.59
41712;BME280;27399;51.516;13.670;2023-03-20T02:57:15;100496.97;;;11.87;84.00
41712;BME280;27399;51.516;13.670;2023-03-20T03:00:14;100501.31;;;11.94;83.81
41712;BME280;27399;51.516;13.670;2023-03-20T03:05:44;100487.13;;;11.89;83.55
41712;BME280;27399;51.516;13.670;2023-03-20T03:08:13;100470.19;;;11.88;83.15
41712;BME280;27399;51.516;13.670;2023-03-20T03:10:50;100494.19;;;11.94;83.45
41712;BME280;27399;51.516;13.670;2023-03-20T03:13:20;100493.25;;;11.99;83.15
41712;BME280;27399;51.516;13.670;2023-03-20T03:15:51;100498.63;;;11.96;82.90
41712;BME280;27399;51.516;13.670;2023-03-20T03:18:20;100499.59;;;11.90;83.05
41712;BME280;27399;51.516;13.670;2023-03-20T03:20:49;100495.09;;;11.93;82.93
41712;BME280;27399;51.516;13.670;2023-03-20T03:23:42;100502.28;;;11.88;82.88
41712;BME280;27399;51.516;13.670;2023-03-20T03:26:24;100504.91;;;11.91;82.59
41712;BME280;27399;51.516;13.670;2023-03-20T03:28:54;100499.53;;;11.93;82.63
41712;BME280;27399;51.516;13.670;2023-03-20T03:31:22;100494.25;;;11.90;82.74
41712;BME280;27399;51.516;13.670;2023-03-20T03:33:54;100495.97;;;11.96;82.69
41712;BME280;27399;51.516;13.670;2023-03-20T03:47:21;100478.56;;;11.63;82.22
41712;BME280;27399;51.516;13.670;2023-03-20T03:49:55;100492.69;;;11.72;82.28
41712;BME280;27399;51.516;13.670;2023-03-20T03:52:23;100493.66;;;11.66;82.61
41712;BME280;27399;51.516;13.670;2023-03-20T03:55:07;100494.44;;;11.74;82.75
41712;BME280;27399;51.516;13.670;2023-03-20T03:57:47;100500.66;;;11.76;82.69
41712;BME280;27399;51.516;13.670;2023-03-20T04:00:18;100497.97;;;11.76;82.52
41712;BME280;27399;51.516;13.670;2023-03-20T04:02:49;100501.63;;;11.68;82.59
41712;BME280;27399;51.516;13.670;2023-03-20T04:05:17;100501.63;;;11.69;82.28
41712;BME280;27399;51.516;13.670;2023-03-20T04:07:45;100499.91;;;11.63;82.83
41712;BME280;27399;51.516;13.670;2023-03-20T04:10:11;100502.44;;;11.74;82.91
41712;BME280;27399;51.516;13.670;2023-03-20T04:12:41;100500.63;;;11.80;83.17
41712;BME280;27399;51.516;13.670;2023-03-20T04:15:07;100497.06;;;11.76;83.05
41712;BME280;27399;51.516;13.670;2023-03-20T04:17:34;100508.50;;;11.87;82.32
41712;BME280;27399;51.516;13.670;2023-03-20T04:20:00;100508.53;;;11.86;82.19
41712;BME280;27399;51.516;13.670;2023-03-20T04:22:26;100509.44;;;11.85;82.78
41712;BME280;27399;51.516;13.670;2023-03-20T04:24:52;100510.56;;;11.65;83.14
41712;BME280;27399;51.516;13.670;2023-03-20T04:27:18;100510.38;;;11.82;82.78
41712;BME280;27399;51.516;13.670;2023-03-20T04:29:44;100504.84;;;11.96;81.71
41712;BME280;27399;51.516;13.670;2023-03-20T04:32:10;100515.56;;;11.93;82.10
41712;BME280;27399;51.516;13.670;2023-03-20T04:34:36;100511.16;;;11.90;82.53
41712;BME280;27399;51.516;13.670;2023-03-20T04:37:01;100519.28;;;11.81;82.72
41712;BME280;27399;51.516;13.670;2023-03-20T04:39:27;100525.53;;;11.80;82.79
41712;BME280;27399;51.516;13.670;2023-03-20T04:41:53;100534.50;;;11.74;82.88
41712;BME280;27399;51.516;13.670;2023-03-20T04:44:18;100532.75;;;11.72;83.17
41712;BME280;27399;51.516;13.670;2023-03-20T04:46:44;100534.53;;;11.71;83.21
41712;BME280;27399;51.516;13.670;2023-03-20T04:49:10;100537.25;;;11.68;82.75
41712;BME280;27399;51.516;13.670;2023-03-20T04:51:35;100542.59;;;11.68;83.25
41712;BME280;27399;51.516;13.670;2023-03-20T04:54:01;100539.97;;;11.65;83.27
41712;BME280;27399;51.516;13.670;2023-03-20T04:56:26;100540.81;;;11.69;82.99
41712;BME280;27399;51.516;13.670;2023-03-20T04:58:52;100537.28;;;11.65;83.00
41712;BME280;27399;51.516;13.670;2023-03-20T05:01:18;100544.41;;;11.66;83.29
41712;BME280;27399;51.516;13.670;2023-03-20T05:03:43;100541.72;;;11.66;83.43
41712;BME280;27399;51.516;13.670;2023-03-20T05:06:09;100553.25;;;11.70;83.09
41712;BME280;27399;51.516;13.670;2023-03-20T05:08:35;100553.34;;;11.62;83.55
41712;BME280;27399;51.516;13.670;2023-03-20T05:11:01;100554.25;;;11.62;83.74
41712;BME280;27399;51.516;13.670;2023-03-20T05:13:26;100551.47;;;11.70;83.38
41712;BME280;27399;51.516;13.670;2023-03-20T05:15:52;100557.72;;;11.68;83.86
41712;BME280;27399;51.516;13.670;2023-03-20T05:18:18;100559.47;;;11.72;83.55
41712;BME280;27399;51.516;13.670;2023-03-20T05:20:43;100552.38;;;11.71;83.35
41712;BME280;27399;51.516;13.670;2023-03-20T05:23:09;100557.56;;;11.83;82.94
41712;BME280;27399;51.516;13.670;2023-03-20T05:25:35;100564.69;;;11.83;83.22
41712;BME280;27399;51.516;13.670;2023-03-20T05:28:00;100563.88;;;11.76;83.39
41712;BME280;27399;51.516;13.670;2023-03-20T05:30:26;100559.41;;;11.78;83.79
41712;BME280;27399;51.516;13.670;2023-03-20T05:32:52;100562.94;;;11.80;83.08
41712;BME280;27399;51.516;13.670;2023-03-20T05:35:18;100552.41;;;11.65;83.82
41712;BME280;27399;51.516;13.670;2023-03-20T05:37:44;100561.25;;;11.73;83.68
41712;BME280;27399;51.516;13.670;2023-03-20T05:40:12;100559.41;;;11.78;83.36
41712;BME280;27399;51.516;13.670;2023-03-20T05:42:39;100565.69;;;11.72;83.55
41712;BME280;27399;51.516;13.670;2023-03-20T05:45:05;100574.59;;;11.71;83.61
41712;BME280;27399;51.516;13.670;2023-03-20T05:47:30;100572.78;;;11.75;83.63
41712;BME280;27399;51.516;13.670;2023-03-20T05:49:56;100574.66;;;11.68;83.50
41712;BME280;27399;51.516;13.670;2023-03-20T05:52:22;100579.06;;;11.74;83.58
41712;BME280;27399;51.516;13.670;2023-03-20T05:54:49;100576.41;;;11.71;83.87
41712;BME280;27399;51.516;13.670;2023-03-20T05:57:15;100583.47;;;11.76;83.60
41712;BME280;27399;51.516;13.670;2023-03-20T05:59:42;100577.22;;;11.76;83.85
41712;BME280;27399;51.516;13.670;2023-03-20T06:02:08;100583.47;;;11.80;83.77
41712;BME280;27399;51.516;13.670;2023-03-20T06:04:33;100583.47;;;11.76;83.96
41712;BME280;27399;51.516;13.670;2023-03-20T06:07:02;100580.78;;;11.78;83.71
41712;BME280;27399;51.516;13.670;2023-03-20T06:09:28;100586.16;;;11.75;83.80
41712;BME280;27399;51.516;13.670;2023-03-20T06:11:54;100579.03;;;11.75;84.22
41712;BME280;27399;51.516;13.670;2023-03-20T06:14:20;100581.63;;;11.83;83.44
41712;BME280;27399;51.516;13.670;2023-03-20T06:16:46;100581.63;;;11.83;83.79
41712;BME280;27399;51.516;13.670;2023-03-20T06:19:12;100579.84;;;11.82;83.84
41712;BME280;27399;51.516;13.670;2023-03-20T06:21:38;100587.81;;;11.87;84.01
41712;BME280;27399;51.516;13.670;2023-03-20T06:24:04;100593.09;;;11.94;83.76
41712;BME280;27399;51.516;13.670;2023-03-20T06:26:29;100583.31;;;11.90;84.31
41712;BME280;27399;51.516;13.670;2023-03-20T06:28:55;100593.25;;;11.76;85.19
41712;BME280;27399;51.516;13.670;2023-03-20T06:31:21;100593.09;;;11.94;83.79
41712;BME280;27399;51.516;13.670;2023-03-20T06:33:46;100595.72;;;11.99;83.87
41712;BME280;27399;51.516;13.670;2023-03-20T06:36:12;100593.94;;;11.97;84.05
41712;BME280;27399;51.516;13.670;2023-03-20T06:38:38;100596.59;;;12.00;84.16
41712;BME280;27399;51.516;13.670;2023-03-20T06:41:04;100597.44;;;12.03;84.50
41712;BME280;27399;51.516;13.670;2023-03-20T06:43:29;100608.03;;;12.14;83.16
41712;BME280;27399;51.516;13.670;2023-03-20T06:45:55;100606.34;;;12.05;83.71
41712;BME280;27399;51.516;13.670;2023-03-20T06:48:21;100609.06;;;12.01;84.09
41712;BME280;27399;51.516;13.670;2023-03-20T06:50:48;100607.13;;;12.15;83.85
41712;BME280;27399;51.516;13.670;2023-03-20T06:53:14;100612.63;;;11.97;84.07
41712;BME280;27399;51.516;13.670;2023-03-20T06:55:42;100609.06;;;12.01;84.16
41712;BME280;27399;51.516;13.670;2023-03-20T06:58:07;100608.91;;;12.16;83.54
41712;BME280;27399;51.516;13.670;2023-03-20T07:00:33;100615.31;;;12.00;84.32
41712;BME280;27399;51.516;13.670;2023-03-20T07:02:59;100610.69;;;12.14;83.75
41712;BME280;27399;51.516;13.670;2023-03-20T07:05:24;100610.63;;;12.22;83.71
41712;BME280;27399;51.516;13.670;2023-03-20T07:07:50;100615.03;;;12.24;83.62
41712;BME280;27399;51.516;13.670;2023-03-20T07:10:16;100612.38;;;12.24;83.61
41712;BME280;27399;51.516;13.670;2023-03-20T07:12:42;100599.81;;;12.30;82.89
41712;BME280;27399;51.516;13.670;2023-03-20T07:15:08;100595.28;;;12.35;82.75
41712;BME280;27399;51.516;13.670;2023-03-20T07:17:35;100606.22;;;12.15;84.03
41712;BME280;27399;51.516;13.670;2023-03-20T07:20:02;100617.66;;;12.28;84.01
41712;BME280;27399;51.516;13.670;2023-03-20T07:22:29;100617.63;;;12.32;85.07
41712;BME280;27399;51.516;13.670;2023-03-20T07:24:56;100629.22;;;12.31;86.01
41712;BME280;27399;51.516;13.670;2023-03-20T07:27:22;100624.84;;;12.26;86.07
41712;BME280;27399;51.516;13.670;2023-03-20T07:29:47;100630.16;;;12.27;87.34
41712;BME280;27399;51.516;13.670;2023-03-20T07:32:13;100625.63;;;12.34;86.50
41712;BME280;27399;51.516;13.670;2023-03-20T07:34:39;100632.81;;;12.27;88.63
41712;BME280;27399;51.516;13.670;2023-03-20T07:37:05;100638.16;;;12.30;88.14
41712;BME280;27399;51.516;13.670;2023-03-20T07:39:31;100636.34;;;12.31;88.50
41712;BME280;27399;51.516;13.670;2023-03-20T07:41:57;100639.00;;;12.34;88.78
41712;BME280;27399;51.516;13.670;2023-03-20T07:44:22;100637.25;;;12.30;89.69
41712;BME280;27399;51.516;13.670;2023-03-20T07:46:48;100637.25;;;12.30;90.15
41712;BME280;27399;51.516;13.670;2023-03-20T07:49:14;100633.59;;;12.35;88.69
41712;BME280;27399;51.516;13.670;2023-03-20T07:51:43;100636.16;;;12.45;88.30
41712;BME280;27399;51.516;13.670;2023-03-20T07:54:09;100644.22;;;12.43;89.42
41712;BME280;27399;51.516;13.670;2023-03-20T07:56:35;100636.16;;;12.46;88.14
41712;BME280;27399;51.516;13.670;2023-03-20T07:59:01;100636.16;;;12.45;89.44
41712;BME280;27399;51.516;13.670;2023-03-20T08:01:26;100640.63;;;12.47;89.20
41712;BME280;27399;51.516;13.670;2023-03-20T08:03:52;100642.31;;;12.53;89.91
41712;BME280;27399;51.516;13.670;2023-03-20T08:06:18;100638.72;;;12.55;89.62
41712;BME280;27399;51.516;13.670;2023-03-20T08:08:43;100649.38;;;12.59;89.79
41712;BME280;27399;51.516;13.670;2023-03-20T08:11:10;100647.53;;;12.61;89.27
41712;BME280;27399;51.516;13.670;2023-03-20T08:13:36;100644.91;;;12.59;89.92
41712;BME280;27399;51.516;13.670;2023-03-20T08:16:02;100631.38;;;12.71;88.69
41712;BME280;27399;51.516;13.670;2023-03-20T08:18:28;100642.91;;;12.75;88.49
41712;BME280;27399;51.516;13.670;2023-03-20T08:20:54;100640.44;;;12.60;89.72
41712;BME280;27399;51.516;13.670;2023-03-20T08:23:19;100647.38;;;12.73;91.14
41712;BME280;27399;51.516;13.670;2023-03-20T08:25:49;100645.47;;;12.81;89.69
41712;BME280;27399;51.516;13.670;2023-03-20T08:28:15;100644.53;;;12.85;90.46
41712;BME280;27399;51.516;13.670;2023-03-20T08:30:41;100644.56;;;12.82;90.06
41712;BME280;27399;51.516;13.670;2023-03-20T08:33:06;100643.63;;;12.86;90.69
41712;BME280;27399;51.516;13.670;2023-03-20T08:35:32;100650.72;;;12.91;89.46
41712;BME280;27399;51.516;13.670;2023-03-20T08:37:58;100636.47;;;12.89;89.65
41712;BME280;27399;51.516;13.670;2023-03-20T08:40:23;100642.53;;;13.01;88.23
41712;BME280;27399;51.516;13.670;2023-03-20T08:42:49;100641.06;;;12.80;89.46
41712;BME280;27399;51.516;13.670;2023-03-20T08:45:15;100642.66;;;12.92;90.13
41712;BME280;27399;51.516;13.670;2023-03-20T08:47:41;100648.03;;;12.92;89.39
41712;BME280;27399;51.516;13.670;2023-03-20T08:50:07;100653.56;;;12.77;89.83
41712;BME280;27399;51.516;13.670;2023-03-20T08:52:33;100660.56;;;12.89;88.73
41712;BME280;27399;51.516;13.670;2023-03-20T08:54:59;100657.06;;;12.83;89.34
41712;BME280;27399;51.516;13.670;2023-03-20T08:57:25;100657.75;;;12.98;88.99
41712;BME280;27399;51.516;13.670;2023-03-20T08:59:51;100660.31;;;13.04;88.58
41712;BME280;27399;51.516;13.670;2023-03-20T09:02:17;100658.63;;;13.00;89.00
41712;BME280;27399;51.516;13.670;2023-03-20T09:04:42;100663.09;;;12.98;88.59
41712;BME280;27399;51.516;13.670;2023-03-20T09:07:08;100662.22;;;12.97;89.09
41712;BME280;27399;51.516;13.670;2023-03-20T09:09:34;100670.44;;;12.85;89.27
41712;BME280;27399;51.516;13.670;2023-03-20T09:12:00;100667.66;;;12.91;89.21
41712;BME280;27399;51.516;13.670;2023-03-20T09:14:26;100677.56;;;12.84;89.28
41712;BME280;27399;51.516;13.670;2023-03-20T09:16:53;100674.88;;;12.84;89.20
41712;BME280;27399;51.516;13.670;2023-03-20T09:19:18;100676.56;;;12.92;88.72
41712;BME280;27399;51.516;13.670;2023-03-20T09:21:45;100681.50;;;12.59;89.19
41712;BME280;27399;51.516;13.670;2023-03-20T09:24:10;100685.91;;;12.61;89.87
41712;BME280;27399;51.516;13.670;2023-03-20T09:26:37;100683.19;;;12.63;89.65
41712;BME280;27399;51.516;13.670;2023-03-20T09:29:04;100696.50;;;12.70;89.29
41712;BME280;27399;51.516;13.670;2023-03-20T09:31:30;100696.59;;;12.60;89.56
41712;BME280;27399;51.516;13.670;2023-03-20T09:33:55;100696.59;;;12.61;89.95
41712;BME280;27399;51.516;13.670;2023-03-20T09:36:21;100689.53;;;12.59;89.34
41712;BME280;27399;51.516;13.670;2023-03-20T09:38:46;100692.34;;;12.46;90.97
41712;BME280;27399;51.516;13.670;2023-03-20T09:41:20;100692.13;;;12.62;89.77
41712;BME280;27399;51.516;13.670;2023-03-20T09:49:32;100700.94;;;12.70;90.26
41712;BME280;27399;51.516;13.670;2023-03-20T09:52:03;100697.25;;;12.79;89.08
41712;BME280;27399;51.516;13.670;2023-03-20T09:54:39;100698.22;;;12.73;90.78
41712;BME280;27399;51.516;13.670;2023-03-20T09:57:16;100712.66;;;12.60;91.89
41712;BME280;27399;51.516;13.670;2023-03-20T09:59:44;100715.25;;;12.69;92.51
41712;BME280;27399;51.516;13.670;2023-03-20T10:02:34;100705.50;;;12.63;91.95
41712;BME280;27399;51.516;13.670;2023-03-20T10:05:02;100715.25;;;12.67;91.78
41712;BME280;27399;51.516;13.670;2023-03-20T10:07:28;100705.41;;;12.69;92.20
41712;BME280;27399;51.516;13.670;2023-03-20T10:09:54;100709.81;;;12.75;91.96
41712;BME280;27399;51.516;13.670;2023-03-20T10:15:34;100705.38;;;12.73;93.13
41712;BME280;27399;51.516;13.670;2023-03-20T10:18:25;100699.41;;;12.50;93.71
41712;BME280;27399;51.516;13.670;2023-03-20T10:21:04;100702.69;;;12.74;92.07
41712;BME280;27399;51.516;13.670;2023-03-20T10:23:36;100711.59;;;12.76;93.06
41712;BME280;27399;51.516;13.670;2023-03-20T10:26:10;100709.72;;;12.81;92.38
41712;BME280;27399;51.516;13.670;2023-03-20T10:29:00;100702.66;;;12.77;92.11
41712;BME280;27399;51.516;13.670;2023-03-20T10:31:43;100710.66;;;12.79;92.12
41712;BME280;27399;51.516;13.670;2023-03-20T10:39:59;100707.25;;;12.66;91.58
41712;BME280;27399;51.516;13.670;2023-03-20T10:42:35;100712.47;;;12.75;91.93
41712;BME280;27399;51.516;13.670;2023-03-20T10:45:17;100712.56;;;12.67;91.90
41712;BME280;27399;51.516;13.670;2023-03-20T10:47:50;100708.31;;;12.52;92.50
41712;BME280;27399;51.516;13.670;2023-03-20T10:50:18;100711.69;;;12.67;92.00
41712;BME280;27399;51.516;13.670;2023-03-20T10:52:48;100719.63;;;12.73;91.28
41712;BME280;27399;51.516;13.670;2023-03-20T10:57:51;100719.72;;;12.67;92.29
41712;BME280;27399;51.516;13.670;2023-03-20T11:00:23;100715.19;;;12.74;91.64
41712;BME280;27399;51.516;13.670;2023-03-20T11:02:50;100716.94;;;12.76;90.98
41712;BME280;27399;51.516;13.670;2023-03-20T11:05:29;100709.97;;;12.63;92.61
41712;BME280;27399;51.516;13.670;2023-03-20T11:08:15;100716.16;;;12.66;91.51
41712;BME280;27399;51.516;13.670;2023-03-20T11:10:42;100707.97;;;12.80;92.19
41712;BME280;27399;51.516;13.670;2023-03-20T11:13:21;100712.41;;;12.81;91.21
41712;BME280;27399;51.516;13.670;2023-03-20T11:15:51;100706.19;;;12.79;92.36
41712;BME280;27399;51.516;13.670;2023-03-20T11:18:17;100698.97;;;12.84;92.83
41712;BME280;27399;51.516;13.670;2023-03-20T11:20:53;100703.47;;;12.82;92.40
41712;BME280;27399;51.516;13.670;2023-03-20T11:23:26;100706.06;;;12.89;91.17
41712;BME280;27399;51.516;13.670;2023-03-20T11:26:05;100707.97;;;12.80;91.23
41712;BME280;27399;51.516;13.670;2023-03-20T11:28:36;100715.91;;;12.86;90.60
41712;BME280;27399;51.516;13.670;2023-03-20T11:33:45;100718.72;;;12.76;91.27
41712;BME280;27399;51.516;13.670;2023-03-20T11:36:23;100710.66;;;12.79;90.81
41712;BME280;27399;51.516;13.670;2023-03-20T11:38:50;100726.81;;;12.73;91.44
41712;BME280;27399;51.516;13.670;2023-03-20T11:41:19;100705.34;;;12.74;90.91
41712;BME280;27399;51.516;13.670;2023-03-20T11:43:47;100712.47;;;12.75;92.17
41712;BME280;27399;51.516;13.670;2023-03-20T11:46:13;100708.13;;;12.66;92.38
41712;BME280;27399;51.516;13.670;2023-03-20T11:48:41;100714.53;;;12.54;93.00
41712;BME280;27399;51.516;13.670;2023-03-20T11:51:14;100709.91;;;12.67;92.16
41712;BME280;27399;51.516;13.670;2023-03-20T11:53:56;100709.97;;;12.64;92.93
41712;BME280;27399;51.516;13.670;2023-03-20T11:56:27;100702.81;;;12.65;92.56
41712;BME280;27399;51.516;13.670;2023-03-20T12:01:43;100703.47;;;12.82;92.06
41712;BME280;27399;51.516;13.670;2023-03-20T12:04:32;100698.94;;;12.86;91.94
41712;BME280;27399;51.516;13.670;2023-03-20T12:07:24;100685.44;;;12.97;91.39
41712;BME280;27399;51.516;13.670;2023-03-20T12:09:54;100694.41;;;12.94;91.82
41712;BME280;27399;51.516;13.670;2023-03-20T12:15:50;100689.88;;;12.98;91.14
41712;BME280;27399;51.516;13.670;2023-03-20T12:18:41;100689.88;;;12.98;91.44
41712;BME280;27399;51.516;13.670;2023-03-20T12:21:15;100683.66;;;12.96;90.72
41712;BME280;27399;51.516;13.670;2023-03-20T12:24:00;100681.09;;;12.88;90.73
41712;BME280;27399;51.516;13.670;2023-03-20T12:26:41;100683.53;;;13.05;89.74
41712;BME280;27399;51.516;13.670;2023-03-20T12:32:14;100681.69;;;13.10;90.95
41712;BME280;27399;51.516;13.670;2023-03-20T12:34:44;100676.25;;;13.13;90.24
41712;BME280;27399;51.516;13.670;2023-03-20T12:37:11;100683.53;;;13.07;89.12
41712;BME280;27399;51.516;13.670;2023-03-20T12:40:01;100683.44;;;13.11;89.45
41712;BME280;27399;51.516;13.670;2023-03-20T12:42:38;100681.56;;;13.16;88.98
41712;BME280;27399;51.516;13.670;2023-03-20T12:50:41;100672.59;;;13.21;88.27
41712;BME280;27399;51.516;13.670;2023-03-20T12:56:31;100668.19;;;13.16;88.57
41712;BME280;27399;51.516;13.670;2023-03-20T13:01:44;100657.44;;;13.20;88.18
41712;BME280;27399;51.516;13.670;2023-03-20T13:06:58;100664.63;;;13.16;89.88
41712;BME280;27399;51.516;13.670;2023-03-20T13:09:58;100658.38;;;13.15;90.38
41712;BME280;27399;51.516;13.670;2023-03-20T13:30:43;100635.28;;;13.08;89.89
41712;BME280;27399;51.516;13.670;2023-03-20T13:33:31;100630.81;;;13.09;90.52
41712;BME280;27399;51.516;13.670;2023-03-20T13:36:15;100627.22;;;13.11;90.27
41712;BME280;27399;51.516;13.670;2023-03-20T13:38:48;100625.38;;;13.13;89.58
41712;BME280;27399;51.516;13.670;2023-03-20T13:41:17;100632.50;;;13.16;88.58
41712;BME280;27399;51.516;13.670;2023-03-20T13:43:55;100627.06;;;13.21;87.55
41712;BME280;27399;51.516;13.670;2023-03-20T13:46:26;100623.53;;;13.18;88.62
41712;BME280;27399;51.516;13.670;2023-03-20T13:48:55;100623.53;;;13.18;88.65
41712;BME280;27399;51.516;13.670;2023-03-20T13:51:38;100619.00;;;13.22;88.18
41712;BME280;27399;51.516;13.670;2023-03-20T14:04:42;100614.81;;;13.04;87.11
41712;BME280;27399;51.516;13.670;2023-03-20T14:07:38;100618.28;;;13.11;87.57
41712;BME280;27399;51.516;13.670;2023-03-20T14:13:03;100612.09;;;13.07;88.93
41712;BME280;27399;51.516;13.670;2023-03-20T14:15:37;100612.06;;;13.09;88.43
41712;BME280;27399;51.516;13.670;2023-03-20T14:18:05;100610.44;;;12.98;88.64
41712;BME280;27399;51.516;13.670;2023-03-20T14:20:37;100609.41;;;13.07;88.60
41712;BME280;27399;51.516;13.670;2023-03-20T14:23:04;100615.53;;;13.15;88.18
41712;BME280;27399;51.516;13.670;2023-03-20T14:25:38;100608.41;;;13.14;88.59
41712;BME280;27399;51.516;13.670;2023-03-20T14:33:23;100605.97;;;12.99;88.05
41712;BME280;27399;51.516;13.670;2023-03-20T14:36:10;100612.25;;;12.96;88.46
41712;BME280;27399;51.516;13.670;2023-03-20T14:38:56;100616.50;;;13.10;87.39
41712;BME280;27399;51.516;13.670;2023-03-20T14:44:37;100604.03;;;13.10;88.39
41712;BME280;27399;51.516;13.670;2023-03-20T14:57:51;100611.00;;;13.19;87.86
41712;BME280;27399;51.516;13.670;2023-03-20T15:00:19;100601.38;;;13.07;88.64
41712;BME280;27399;51.516;13.670;2023-03-20T15:02:47;100597.56;;;13.22;86.92
41712;BME280;27399;51.516;13.670;2023-03-20T15:05:24;100589.50;;;13.24;86.74
41712;BME280;27399;51.516;13.670;2023-03-20T15:07:51;100587.00;;;13.13;86.96
41712;BME280;27399;51.516;13.670;2023-03-20T15:10:17;100585.13;;;13.20;86.49
41712;BME280;27399;51.516;13.670;2023-03-20T15:12:43;100576.28;;;13.14;86.18
41712;BME280;27399;51.516;13.670;2023-03-20T15:15:27;100582.88;;;12.93;87.36
41712;BME280;27399;51.516;13.670;2023-03-20T15:18:02;100571.81;;;13.13;86.26
41712;BME280;27399;51.516;13.670;2023-03-20T15:20:28;100564.84;;;13.03;86.92